Time;durP1;ratioP1;P1;durP2;ratioP2;P2;SDS_P1;SDS_P2;PMS_P1;PMS_P2;Temp;Humidity;BMP_temperature;BMP_pressure;BME280_temperature;BME280_humidity;BME280_pressure;Samples;Min_cycle;Max_cycle;Signal;HPM_P1;HPM_P2
2023/09/02 00:01:09;;;;;;;8.00;6.32;;;;;;;;;;5088978;28;41304;-67
2023/09/02 00:03:38;;;;;;;7.95;7.18;;;;;;;;;;5087733;28;42514;-67
2023/09/02 00:06:06;;;;;;;7.88;6.75;;;;;;;;;;5088960;28;41414;-68
2023/09/02 00:08:37;;;;;;;8.15;7.35;;;;;;;;;;5085021;28;41678;-66
2023/09/02 00:11:06;;;;;;;7.40;6.70;;;;;;;;;;5120592;27;40826;-66
2023/09/02 00:13:35;;;;;;;9.45;7.57;;;;;;;;;;5086909;28;41377;-65
2023/09/02 00:16:03;;;;;;;8.13;7.32;;;;;;;;;;5088849;28;41698;-65
2023/09/02 00:18:32;;;;;;;9.52;7.30;;;;;;;;;;5087672;28;43208;-66
2023/09/02 00:20:59;;;;;;;7.18;6.43;;;;;;;;;;5088768;28;41679;-66
2023/09/02 00:23:27;;;;;;;7.13;6.43;;;;;;;;;;5088633;27;42404;-66
2023/09/02 00:25:56;;;;;;;7.18;6.50;;;;;;;;;;5088116;28;40978;-67
2023/09/02 00:28:25;;;;;;;6.47;5.93;;;;;;;;;;5078557;28;41625;-67
2023/09/02 00:30:54;;;;;;;6.50;5.90;;;;;;;;;;5088062;28;42161;-66
2023/09/02 00:33:22;;;;;;;7.82;7.03;;;;;;;;;;5088276;28;40959;-66
2023/09/02 00:35:50;;;;;;;6.40;5.80;;;;;;;;;;5082026;28;41940;-66
2023/09/02 00:38:18;;;;;;;6.85;6.22;;;;;;;;;;5081339;28;43097;-67
2023/09/02 00:40:47;;;;;;;6.82;6.13;;;;;;;;;;5082640;28;41503;-66
2023/09/02 00:43:15;;;;;;;8.80;6.57;;;;;;;;;;5085221;28;43205;-66
2023/09/02 00:45:45;;;;;;;6.40;5.80;;;;;;;;;;5083200;28;40040;-67
2023/09/02 00:48:13;;;;;;;6.40;5.70;;;;;;;;;;5076416;28;40584;-67
2023/09/02 00:50:41;;;;;;;8.60;6.85;;;;;;;;;;5087766;28;41736;-66
2023/09/02 00:53:09;;;;;;;7.05;6.00;;;;;;;;;;5087528;28;40458;-66
2023/09/02 00:55:39;;;;;;;6.18;5.57;;;;;;;;;;5087974;28;41433;-66
2023/09/02 00:58:07;;;;;;;6.57;5.97;;;;;;;;;;5087170;28;41265;-67
2023/09/02 01:00:35;;;;;;;6.80;6.20;;;;;;;;;;5087059;28;40502;-66
2023/09/02 01:03:04;;;;;;;6.10;5.50;;;;;;;;;;5088312;28;41096;-66
2023/09/02 01:05:33;;;;;;;7.30;5.78;;;;;;;;;;5085892;28;42392;-66
2023/09/02 01:08:01;;;;;;;7.07;6.35;;;;;;;;;;5085593;28;40191;-66
2023/09/02 01:10:29;;;;;;;6.15;5.63;;;;;;;;;;5087249;28;41977;-66
2023/09/02 01:12:57;;;;;;;6.97;6.28;;;;;;;;;;5087375;28;40015;-66
2023/09/02 01:15:25;;;;;;;6.95;6.25;;;;;;;;;;5084748;28;42094;-66
2023/09/02 01:17:54;;;;;;;6.72;6.13;;;;;;;;;;5085869;28;41564;-66
2023/09/02 01:20:23;;;;;;;6.90;6.20;;;;;;;;;;5086591;28;40401;-66
2023/09/02 01:22:57;;;;;;;6.35;5.65;;;;;;;;;;5087000;28;42056;-66
2023/09/02 01:25:32;;;;;;;5.20;4.70;;;;;;;;;;5087072;28;32710;-66
2023/09/02 01:28:02;;;;;;;6.70;5.65;;;;;;;;;;5082540;28;42355;-66
2023/09/02 01:30:31;;;;;;;6.43;5.70;;;;;;;;;;5083901;28;42770;-66
2023/09/02 01:33:00;;;;;;;5.82;5.25;;;;;;;;;;5087457;28;40419;-66
2023/09/02 01:35:28;;;;;;;6.18;5.53;;;;;;;;;;5085837;28;41308;-65
2023/09/02 01:37:57;;;;;;;5.55;5.03;;;;;;;;;;5087316;28;42152;-65
2023/09/02 01:40:25;;;;;;;5.15;4.65;;;;;;;;;;5087079;28;40946;-66
2023/09/02 01:42:55;;;;;;;5.45;4.95;;;;;;;;;;5086872;28;41446;-66
2023/09/02 01:45:25;;;;;;;5.78;5.18;;;;;;;;;;5087479;28;42071;-66
2023/09/02 01:47:53;;;;;;;6.32;5.72;;;;;;;;;;5086554;28;42640;-66
2023/09/02 01:50:22;;;;;;;6.38;5.72;;;;;;;;;;5086233;28;42090;-66
2023/09/02 01:52:50;;;;;;;4.93;4.50;;;;;;;;;;5084745;28;39169;-66
2023/09/02 01:55:18;;;;;;;5.93;5.43;;;;;;;;;;5084974;28;41304;-66
2023/09/02 01:57:46;;;;;;;6.13;4.80;;;;;;;;;;5086643;28;41931;-66
2023/09/02 02:00:14;;;;;;;5.05;4.60;;;;;;;;;;5085626;28;39073;-66
2023/09/02 02:02:46;;;;;;;5.78;4.82;;;;;;;;;;5084009;28;39952;-66
2023/09/02 02:05:14;;;;;;;5.55;5.05;;;;;;;;;;5084972;28;40769;-66
2023/09/02 02:07:42;;;;;;;5.03;4.55;;;;;;;;;;5087166;28;40122;-66
2023/09/02 02:10:12;;;;;;;5.30;4.80;;;;;;;;;;5086398;28;43437;-66
2023/09/02 02:12:40;;;;;;;5.03;4.53;;;;;;;;;;5086618;28;40343;-66
2023/09/02 02:15:11;;;;;;;4.43;4.03;;;;;;;;;;5087500;28;42319;-66
2023/09/02 02:17:39;;;;;;;5.25;4.78;;;;;;;;;;5100527;28;40404;-66
2023/09/02 02:20:10;;;;;;;4.57;4.18;;;;;;;;;;5087336;28;41506;-66
2023/09/02 02:22:38;;;;;;;7.00;5.78;;;;;;;;;;5085515;28;42007;-66
2023/09/02 02:25:06;;;;;;;4.88;4.38;;;;;;;;;;5086710;28;43247;-66
2023/09/02 02:27:34;;;;;;;4.70;4.20;;;;;;;;;;5087008;28;41250;-66
2023/09/02 02:30:03;;;;;;;4.97;4.53;;;;;;;;;;5085598;28;40991;-66
2023/09/02 02:32:31;;;;;;;5.15;4.65;;;;;;;;;;5070315;28;39565;-66
2023/09/02 02:35:00;;;;;;;4.55;4.15;;;;;;;;;;5077912;28;41254;-66
2023/09/02 02:37:30;;;;;;;4.72;4.25;;;;;;;;;;5089316;28;41962;-65
2023/09/02 02:39:58;;;;;;;5.03;4.57;;;;;;;;;;5088544;28;39024;-66
2023/09/02 02:42:26;;;;;;;5.03;4.53;;;;;;;;;;5090104;28;41399;-66
2023/09/02 02:44:54;;;;;;;5.25;4.40;;;;;;;;;;5089674;28;42162;-65
2023/09/02 02:47:22;;;;;;;5.35;4.85;;;;;;;;;;5090179;28;40424;-66
2023/09/02 02:49:50;;;;;;;6.18;5.20;;;;;;;;;;5089895;28;42219;-66
2023/09/02 02:52:17;;;;;;;5.15;4.65;;;;;;;;;;5089788;28;42159;-65
2023/09/02 02:54:48;;;;;;;4.80;4.40;;;;;;;;;;5088357;28;40511;-66
2023/09/02 02:57:16;;;;;;;4.97;4.47;;;;;;;;;;5090578;28;42239;-66
2023/09/02 02:59:44;;;;;;;4.75;4.35;;;;;;;;;;5087434;28;39178;-65
2023/09/02 03:02:14;;;;;;;4.45;3.97;;;;;;;;;;5088562;28;40688;-66
2023/09/02 03:04:46;;;;;;;4.65;4.25;;;;;;;;;;5087925;28;42277;-66
2023/09/02 03:07:15;;;;;;;6.07;5.50;;;;;;;;;;5086324;28;40606;-66
2023/09/02 03:09:44;;;;;;;6.05;5.45;;;;;;;;;;5087564;28;40303;-66
2023/09/02 03:12:13;;;;;;;5.18;4.68;;;;;;;;;;5088868;28;43207;-66
2023/09/02 03:14:41;;;;;;;4.35;3.95;;;;;;;;;;5089126;28;41063;-65
2023/09/02 03:17:11;;;;;;;4.30;3.90;;;;;;;;;;5088469;28;41553;-66
2023/09/02 03:19:43;;;;;;;3.85;3.50;;;;;;;;;;5086356;28;41335;-66
2023/09/02 03:22:12;;;;;;;5.38;3.63;;;;;;;;;;5103370;28;41512;-66
2023/09/02 03:24:42;;;;;;;4.68;4.22;;;;;;;;;;5087803;28;40073;-66
2023/09/02 03:27:10;;;;;;;4.55;4.10;;;;;;;;;;5086517;28;39031;-66
2023/09/02 03:29:39;;;;;;;4.28;3.53;;;;;;;;;;5088965;28;42538;-66
2023/09/02 03:32:08;;;;;;;3.97;3.67;;;;;;;;;;5086755;28;40610;-66
2023/09/02 03:34:36;;;;;;;5.32;4.38;;;;;;;;;;5088571;28;42284;-66
2023/09/02 03:37:03;;;;;;;3.90;3.47;;;;;;;;;;5088776;28;41838;-66
2023/09/02 03:39:33;;;;;;;4.25;3.85;;;;;;;;;;5089015;28;41415;-66
2023/09/02 03:42:01;;;;;;;4.13;3.72;;;;;;;;;;5086260;28;41060;-66
2023/09/02 03:44:29;;;;;;;3.97;3.58;;;;;;;;;;5074868;28;42845;-66
2023/09/02 03:46:58;;;;;;;4.50;4.10;;;;;;;;;;5086675;28;39094;-66
2023/09/02 03:49:27;;;;;;;4.70;4.20;;;;;;;;;;5086350;28;41494;-65
2023/09/02 03:51:55;;;;;;;4.78;4.32;;;;;;;;;;5087348;28;42751;-66
2023/09/02 03:54:24;;;;;;;3.80;3.50;;;;;;;;;;5087142;28;38801;-66
2023/09/02 03:56:52;;;;;;;4.20;3.80;;;;;;;;;;5088223;28;42352;-66
2023/09/02 03:59:20;;;;;;;4.38;3.97;;;;;;;;;;5086838;28;39800;-66
2023/09/02 04:01:48;;;;;;;4.32;3.92;;;;;;;;;;5086647;28;40655;-67
2023/09/02 04:04:19;;;;;;;4.50;4.10;;;;;;;;;;5088661;28;42084;-66
2023/09/02 04:06:47;;;;;;;4.47;4.07;;;;;;;;;;5087110;28;38730;-66
2023/09/02 04:09:15;;;;;;;5.10;4.60;;;;;;;;;;5088050;28;42354;-66
2023/09/02 04:11:43;;;;;;;4.13;3.75;;;;;;;;;;5082637;28;41427;-66
2023/09/02 04:14:11;;;;;;;3.92;3.60;;;;;;;;;;5081513;28;40163;-66
2023/09/02 04:16:39;;;;;;;4.30;3.90;;;;;;;;;;5081757;28;41385;-66
2023/09/02 04:19:08;;;;;;;4.53;4.13;;;;;;;;;;5087081;28;41477;-66
2023/09/02 04:21:37;;;;;;;4.55;4.05;;;;;;;;;;5085080;28;40387;-66
2023/09/02 04:24:06;;;;;;;4.80;4.35;;;;;;;;;;5087717;28;41895;-66
2023/09/02 04:26:34;;;;;;;3.25;2.95;;;;;;;;;;5085942;28;39796;-66
2023/09/02 04:29:02;;;;;;;4.10;3.38;;;;;;;;;;5088453;28;41977;-66
2023/09/02 04:31:30;;;;;;;3.88;3.55;;;;;;;;;;5085606;28;40865;-66
2023/09/02 04:33:58;;;;;;;4.00;3.60;;;;;;;;;;5088580;28;41390;-66
2023/09/02 04:36:26;;;;;;;3.50;3.20;;;;;;;;;;5086234;28;40599;-66
2023/09/02 04:38:56;;;;;;;4.20;3.80;;;;;;;;;;5085915;28;41890;-66
2023/09/02 04:41:25;;;;;;;4.55;4.15;;;;;;;;;;5086525;28;38229;-66
2023/09/02 04:43:53;;;;;;;4.00;3.63;;;;;;;;;;5087676;28;42331;-66
2023/09/02 04:46:21;;;;;;;4.65;4.15;;;;;;;;;;5087676;28;40518;-66
2023/09/02 04:48:49;;;;;;;4.30;3.90;;;;;;;;;;5088259;28;42086;-66
2023/09/02 04:51:20;;;;;;;4.28;3.85;;;;;;;;;;5085170;28;41727;-66
2023/09/02 04:53:49;;;;;;;3.83;3.53;;;;;;;;;;5085850;28;39448;-66
2023/09/02 04:56:20;;;;;;;4.13;3.83;;;;;;;;;;5085724;28;39556;-65
2023/09/02 04:58:48;;;;;;;4.20;3.80;;;;;;;;;;5086118;28;42229;-66
2023/09/02 05:01:18;;;;;;;3.80;3.47;;;;;;;;;;5086309;28;39528;-66
2023/09/02 05:03:54;;;;;;;3.60;3.30;;;;;;;;;;5087315;28;41414;-66
2023/09/02 05:06:22;;;;;;;3.83;3.28;;;;;;;;;;5085017;28;39245;-65
2023/09/02 05:08:54;;;;;;;4.85;4.25;;;;;;;;;;5085885;28;40745;-66
2023/09/02 05:11:25;;;;;;;4.05;3.65;;;;;;;;;;5085112;28;41305;-67
2023/09/02 05:13:54;;;;;;;3.88;3.58;;;;;;;;;;5119547;27;40976;-66
2023/09/02 05:16:22;;;;;;;3.72;3.42;;;;;;;;;;5085801;28;40279;-67
2023/09/02 05:18:50;;;;;;;3.75;3.42;;;;;;;;;;5087651;28;41709;-66
2023/09/02 05:21:18;;;;;;;5.90;4.95;;;;;;;;;;5079174;28;39492;-66
2023/09/02 05:23:47;;;;;;;5.13;4.50;;;;;;;;;;5120225;27;41268;-66
2023/09/02 05:26:15;;;;;;;4.40;4.00;;;;;;;;;;5085564;28;40852;-66
2023/09/02 05:28:44;;;;;;;5.20;3.00;;;;;;;;;;5087440;28;42029;-66
2023/09/02 05:31:12;;;;;;;4.32;3.92;;;;;;;;;;5085240;28;40682;-65
2023/09/02 05:33:40;;;;;;;3.60;3.22;;;;;;;;;;5085264;28;40620;-66
2023/09/02 05:36:08;;;;;;;6.10;5.10;;;;;;;;;;5087327;28;41276;-66
2023/09/02 05:38:36;;;;;;;4.90;4.45;;;;;;;;;;5086965;28;41823;-67
2023/09/02 05:41:04;;;;;;;7.90;4.68;;;;;;;;;;5086837;28;40266;-66
2023/09/02 05:43:32;;;;;;;5.22;4.43;;;;;;;;;;5087054;28;42151;-66
2023/09/02 05:46:03;;;;;;;4.88;4.18;;;;;;;;;;5087011;28;42694;-66
2023/09/02 05:48:31;;;;;;;4.53;4.07;;;;;;;;;;5083034;28;42278;-65
2023/09/02 05:50:59;;;;;;;5.03;3.13;;;;;;;;;;5086781;28;42415;-66
2023/09/02 05:53:27;;;;;;;5.18;4.68;;;;;;;;;;5086870;28;41974;-65
2023/09/02 05:55:55;;;;;;;5.78;4.57;;;;;;;;;;5086527;28;42241;-66
2023/09/02 05:58:23;;;;;;;6.13;4.03;;;;;;;;;;5086487;28;42883;-65
2023/09/02 06:00:51;;;;;;;8.52;4.43;;;;;;;;;;5086128;28;40509;-65
2023/09/02 06:03:21;;;;;;;7.00;5.20;;;;;;;;;;5084409;28;40061;-65
2023/09/02 06:05:50;;;;;;;5.75;4.70;;;;;;;;;;5087033;28;42831;-65
2023/09/02 06:08:18;;;;;;;5.57;4.97;;;;;;;;;;5086093;28;40016;-65
2023/09/02 06:10:55;;;;;;;5.50;4.97;;;;;;;;;;5087478;28;42190;-64
2023/09/02 06:13:23;;;;;;;4.75;4.30;;;;;;;;;;5071944;28;40266;-65
2023/09/02 06:15:51;;;;;;;5.78;4.43;;;;;;;;;;5089504;28;41561;-65
2023/09/02 06:18:20;;;;;;;5.60;3.92;;;;;;;;;;5083543;28;43295;-65
2023/09/02 06:20:48;;;;;;;8.75;5.22;;;;;;;;;;5090507;28;40315;-66
2023/09/02 06:23:16;;;;;;;8.45;6.47;;;;;;;;;;5085836;28;42676;-65
2023/09/02 06:25:45;;;;;;;9.77;7.32;;;;;;;;;;5083238;28;41925;-65
2023/09/02 06:28:13;;;;;;;7.28;6.45;;;;;;;;;;5090066;28;41017;-65
2023/09/02 06:30:40;;;;;;;7.15;6.18;;;;;;;;;;5089208;28;41637;-65
2023/09/02 06:33:08;;;;;;;9.40;7.47;;;;;;;;;;5089751;28;39910;-65
2023/09/02 06:35:38;;;;;;;8.30;6.65;;;;;;;;;;5090121;28;41656;-66
2023/09/02 06:38:06;;;;;;;7.32;6.60;;;;;;;;;;5089386;28;41541;-65
2023/09/02 06:40:34;;;;;;;9.80;7.45;;;;;;;;;;5089648;28;40392;-65
2023/09/02 06:43:02;;;;;;;8.63;7.22;;;;;;;;;;5084213;28;41717;-65
2023/09/02 06:45:30;;;;;;;10.38;7.82;;;;;;;;;;5084484;28;43197;-66
2023/09/02 06:47:58;;;;;;;9.18;6.90;;;;;;;;;;5078626;28;41218;-67
2023/09/02 06:50:28;;;;;;;10.10;7.25;;;;;;;;;;5088614;28;41647;-65
2023/09/02 06:52:57;;;;;;;10.68;8.35;;;;;;;;;;5080881;28;43729;-66
2023/09/02 06:55:25;;;;;;;10.63;8.13;;;;;;;;;;5072974;28;40163;-65
2023/09/02 06:57:53;;;;;;;10.95;8.20;;;;;;;;;;5088084;28;42155;-66
2023/09/02 07:00:21;;;;;;;10.82;7.63;;;;;;;;;;5088855;28;40347;-66
2023/09/02 07:02:49;;;;;;;13.07;9.30;;;;;;;;;;5082034;28;42142;-65
2023/09/02 07:05:17;;;;;;;11.25;9.15;;;;;;;;;;5079749;28;42591;-67
2023/09/02 07:07:45;;;;;;;14.05;9.80;;;;;;;;;;5085840;28;41421;-66
2023/09/02 07:10:15;;;;;;;13.90;9.90;;;;;;;;;;5089715;28;41655;-66
2023/09/02 07:12:44;;;;;;;16.85;11.05;;;;;;;;;;5088800;28;41637;-65
2023/09/02 07:15:12;;;;;;;16.27;11.65;;;;;;;;;;5090187;28;38785;-66
2023/09/02 07:17:40;;;;;;;17.10;11.35;;;;;;;;;;5089308;28;42236;-66
2023/09/02 07:20:08;;;;;;;16.30;12.60;;;;;;;;;;5088899;28;40377;-65
2023/09/02 07:22:36;;;;;;;16.90;12.75;;;;;;;;;;5087887;28;41680;-66
2023/09/02 07:25:06;;;;;;;17.65;12.05;;;;;;;;;;5089356;28;43113;-66
2023/09/02 07:27:35;;;;;;;18.63;13.38;;;;;;;;;;5088445;28;40367;-65
2023/09/02 07:30:04;;;;;;;20.60;14.25;;;;;;;;;;5072568;28;40140;-66
2023/09/02 07:32:32;;;;;;;24.45;13.77;;;;;;;;;;5087201;28;41853;-67
2023/09/02 07:35:00;;;;;;;22.90;13.88;;;;;;;;;;5088267;28;41080;-66
2023/09/02 07:37:28;;;;;;;19.17;12.95;;;;;;;;;;5088691;28;41772;-66
2023/09/02 07:39:56;;;;;;;17.00;12.98;;;;;;;;;;5088043;28;40315;-66
2023/09/02 07:42:24;;;;;;;22.10;14.70;;;;;;;;;;5088641;28;41813;-66
2023/09/02 07:44:53;;;;;;;18.98;12.63;;;;;;;;;;5089080;28;41571;-66
2023/09/02 07:47:21;;;;;;;18.27;12.55;;;;;;;;;;5088010;28;41483;-66
2023/09/02 07:49:49;;;;;;;18.10;12.63;;;;;;;;;;5087877;28;41997;-66
2023/09/02 07:52:17;;;;;;;18.23;12.52;;;;;;;;;;5088165;28;41945;-65
2023/09/02 07:54:45;;;;;;;16.85;12.60;;;;;;;;;;5088172;28;41428;-66
2023/09/02 07:57:13;;;;;;;20.50;12.07;;;;;;;;;;5087545;28;40260;-66
2023/09/02 07:59:41;;;;;;;18.20;11.57;;;;;;;;;;5088598;28;41043;-66
2023/09/02 08:02:11;;;;;;;15.75;11.90;;;;;;;;;;5088247;28;41633;-66
2023/09/02 08:04:39;;;;;;;14.95;11.38;;;;;;;;;;5086083;28;42916;-66
2023/09/02 08:07:07;;;;;;;16.75;11.23;;;;;;;;;;5088557;28;40012;-66
2023/09/02 08:09:35;;;;;;;17.35;12.05;;;;;;;;;;5086718;28;41221;-65
2023/09/02 08:12:03;;;;;;;16.27;11.40;;;;;;;;;;5088667;28;42754;-66
2023/09/02 08:14:31;;;;;;;16.17;12.43;;;;;;;;;;5087856;28;39841;-65
2023/09/02 08:16:59;;;;;;;18.65;11.98;;;;;;;;;;5087868;28;41816;-66
2023/09/02 08:19:28;;;;;;;15.57;11.65;;;;;;;;;;5088080;28;42920;-66
2023/09/02 08:21:56;;;;;;;16.10;11.25;;;;;;;;;;5083242;28;41583;-66
2023/09/02 08:24:24;;;;;;;17.80;11.27;;;;;;;;;;5087394;28;43152;-66
2023/09/02 08:26:52;;;;;;;16.08;11.05;;;;;;;;;;5088416;28;41529;-67
2023/09/02 08:29:20;;;;;;;15.20;10.85;;;;;;;;;;5084592;28;42502;-65
2023/09/02 08:31:52;;;;;;;15.07;10.80;;;;;;;;;;5088909;28;20275;-66
2023/09/02 08:34:20;;;;;;;17.20;11.40;;;;;;;;;;5083872;28;40769;-66
2023/09/02 08:36:49;;;;;;;16.98;11.75;;;;;;;;;;5087426;28;42636;-65
2023/09/02 08:39:17;;;;;;;16.55;11.20;;;;;;;;;;5085715;27;42815;-66
2023/09/02 08:41:45;;;;;;;14.52;10.98;;;;;;;;;;5086827;28;40539;-65
2023/09/02 08:44:15;;;;;;;18.15;11.27;;;;;;;;;;5086288;28;41862;-66
2023/09/02 08:46:44;;;;;;;16.35;11.07;;;;;;;;;;5086716;28;40927;-65
2023/09/02 08:49:12;;;;;;;14.75;10.80;;;;;;;;;;5086684;28;42761;-66
2023/09/02 08:51:40;;;;;;;14.50;10.70;;;;;;;;;;5085110;28;40502;-66
2023/09/02 08:54:10;;;;;;;14.25;10.93;;;;;;;;;;5087174;28;40153;-66
2023/09/02 08:56:40;;;;;;;15.23;11.70;;;;;;;;;;5076185;28;42568;-65
2023/09/02 08:59:09;;;;;;;13.68;10.82;;;;;;;;;;5087093;28;43173;-65
2023/09/02 09:01:42;;;;;;;20.95;11.25;;;;;;;;;;5087054;28;40229;-66
2023/09/02 09:04:10;;;;;;;16.00;11.93;;;;;;;;;;5084207;28;41717;-66
2023/09/02 09:06:38;;;;;;;14.18;11.35;;;;;;;;;;5087141;28;40422;-65
2023/09/02 09:09:06;;;;;;;17.15;11.82;;;;;;;;;;5076885;28;41783;-66
2023/09/02 09:11:35;;;;;;;17.98;12.00;;;;;;;;;;5075847;28;43089;-65
2023/09/02 09:14:04;;;;;;;17.98;11.77;;;;;;;;;;5080915;28;40431;-66
2023/09/02 09:16:33;;;;;;;20.13;12.25;;;;;;;;;;5076623;28;41918;-65
2023/09/02 09:19:01;;;;;;;15.10;10.45;;;;;;;;;;5084673;28;41745;-66
2023/09/02 09:21:29;;;;;;;18.27;12.02;;;;;;;;;;5078700;28;41566;-65
2023/09/02 09:23:57;;;;;;;15.70;11.77;;;;;;;;;;5087938;28;41865;-64
2023/09/02 09:26:25;;;;;;;18.52;11.57;;;;;;;;;;5086985;28;41528;-65
2023/09/02 09:28:56;;;;;;;23.58;12.88;;;;;;;;;;5087779;28;41318;-67
2023/09/02 09:31:24;;;;;;;17.30;10.95;;;;;;;;;;5084973;28;43108;-66
2023/09/02 09:33:53;;;;;;;16.10;10.27;;;;;;;;;;5086459;28;41037;-66
2023/09/02 09:36:22;;;;;;;13.75;10.55;;;;;;;;;;5087160;28;41576;-66
2023/09/02 09:38:53;;;;;;;17.90;11.43;;;;;;;;;;5087196;28;41870;-66
2023/09/02 09:41:22;;;;;;;17.60;11.25;;;;;;;;;;5086790;28;40691;-66
2023/09/02 09:44:04;;;;;;;15.88;10.40;;;;;;;;;;5086826;28;42079;-66
2023/09/02 09:46:33;;;;;;;18.05;10.27;;;;;;;;;;5087101;28;42111;-66
2023/09/02 09:49:02;;;;;;;13.45;9.80;;;;;;;;;;5091031;28;40406;-66
2023/09/02 09:51:30;;;;;;;15.23;10.15;;;;;;;;;;5090488;28;41842;-66
2023/09/02 09:53:58;;;;;;;13.23;9.70;;;;;;;;;;5090013;28;40927;-67
2023/09/02 09:56:26;;;;;;;16.85;9.90;;;;;;;;;;5090330;28;41552;-66
2023/09/02 09:58:55;;;;;;;14.25;9.60;;;;;;;;;;5090868;28;42633;-66
2023/09/02 10:01:24;;;;;;;14.88;9.32;;;;;;;;;;5085457;28;41200;-65
2023/09/02 10:03:55;;;;;;;21.58;11.50;;;;;;;;;;5089452;28;41607;-65
2023/09/02 10:06:23;;;;;;;17.85;13.10;;;;;;;;;;5085800;28;42552;-65
2023/09/02 10:08:51;;;;;;;17.50;13.00;;;;;;;;;;5090215;28;41593;-65
2023/09/02 10:11:20;;;;;;;19.00;13.38;;;;;;;;;;5090140;28;42683;-65
2023/09/02 10:13:49;;;;;;;19.95;13.57;;;;;;;;;;5090328;28;40415;-65
2023/09/02 10:16:17;;;;;;;18.52;13.52;;;;;;;;;;5089518;28;41712;-65
2023/09/02 10:18:47;;;;;;;19.50;13.07;;;;;;;;;;5090623;28;42752;-65
2023/09/02 10:21:15;;;;;;;18.65;13.32;;;;;;;;;;5089627;28;41145;-65
2023/09/02 10:23:44;;;;;;;18.30;13.18;;;;;;;;;;5087437;28;40116;-65
2023/09/02 10:26:13;;;;;;;21.02;14.07;;;;;;;;;;5089843;28;42266;-66
2023/09/02 10:28:41;;;;;;;17.60;12.95;;;;;;;;;;5088958;28;41356;-65
2023/09/02 10:31:12;;;;;;;25.52;12.40;;;;;;;;;;5090544;28;42560;-66
2023/09/02 10:33:44;;;;;;;17.88;13.20;;;;;;;;;;5084931;28;40371;-66
2023/09/02 10:36:15;;;;;;;21.08;13.65;;;;;;;;;;5087627;28;42682;-65
2023/09/02 10:38:43;;;;;;;18.77;13.18;;;;;;;;;;5087084;28;42588;-66
2023/09/02 10:41:11;;;;;;;17.60;13.15;;;;;;;;;;5086484;28;40471;-66
2023/09/02 10:43:40;;;;;;;17.08;12.73;;;;;;;;;;5088825;28;42307;-66
2023/09/02 10:46:08;;;;;;;16.05;12.60;;;;;;;;;;5090064;28;42520;-66
2023/09/02 10:48:36;;;;;;;19.30;14.40;;;;;;;;;;5088175;28;41502;-67
2023/09/02 10:51:04;;;;;;;17.38;13.48;;;;;;;;;;5088850;28;42309;-66
2023/09/02 10:53:51;;;;;;;17.35;13.40;;;;;;;;;;5089127;28;43032;-65
2023/09/02 10:56:25;;;;;;;16.73;13.07;;;;;;;;;;5088363;28;42565;-66
2023/09/02 10:58:53;;;;;;;21.42;13.73;;;;;;;;;;5089261;28;42361;-66
2023/09/02 11:01:22;;;;;;;18.13;12.90;;;;;;;;;;5089164;28;42367;-66
2023/09/02 11:03:50;;;;;;;18.63;12.60;;;;;;;;;;5088855;28;41358;-66
2023/09/02 11:06:18;;;;;;;17.50;12.45;;;;;;;;;;5089463;28;41930;-66
2023/09/02 11:08:47;;;;;;;16.45;11.45;;;;;;;;;;5090039;28;41180;-66
2023/09/02 11:11:14;;;;;;;15.95;11.35;;;;;;;;;;5089210;28;41597;-66
2023/09/02 11:14:01;;;;;;;16.63;12.05;;;;;;;;;;5089198;28;43195;-66
2023/09/02 11:16:30;;;;;;;15.93;11.20;;;;;;;;;;5090170;28;40471;-66
2023/09/02 11:19:00;;;;;;;12.90;10.65;;;;;;;;;;5088555;28;42722;-66
2023/09/02 11:21:37;;;;;;;12.82;11.15;;;;;;;;;;5088687;28;41492;-66
2023/09/02 11:24:14;;;;;;;15.65;11.43;;;;;;;;;;5079048;28;41924;-66
2023/09/02 11:26:55;;;;;;;12.63;10.07;;;;;;;;;;5088284;28;41786;-66
2023/09/02 11:29:23;;;;;;;16.23;11.52;;;;;;;;;;5089209;28;40978;-66
2023/09/02 11:31:59;;;;;;;20.38;15.60;;;;;;;;;;5088283;28;41624;-66
2023/09/02 11:34:28;;;;;;;19.85;14.90;;;;;;;;;;5085620;28;42742;-66
2023/09/02 11:36:56;;;;;;;19.20;15.35;;;;;;;;;;5089142;28;40297;-66
2023/09/02 11:39:27;;;;;;;27.20;18.83;;;;;;;;;;5089195;28;42232;-66
2023/09/02 11:42:05;;;;;;;25.75;18.05;;;;;;;;;;5089314;28;40464;-66
2023/09/02 11:44:35;;;;;;;22.70;18.92;;;;;;;;;;5085619;28;41397;-66
2023/09/02 11:47:04;;;;;;;26.45;18.65;;;;;;;;;;5088485;28;42773;-66
2023/09/02 11:49:34;;;;;;;29.30;18.30;;;;;;;;;;5088737;28;39737;-66
2023/09/02 11:52:02;;;;;;;20.75;17.30;;;;;;;;;;5089340;28;42641;-66
2023/09/02 11:54:30;;;;;;;23.75;17.83;;;;;;;;;;5087416;28;41685;-67
2023/09/02 11:57:00;;;;;;;24.73;18.08;;;;;;;;;;5088305;28;41618;-66
2023/09/02 11:59:28;;;;;;;25.25;18.88;;;;;;;;;;5086563;28;40125;-66
2023/09/02 12:02:08;;;;;;;23.92;17.42;;;;;;;;;;5082863;28;33071;-66
2023/09/02 12:04:36;;;;;;;23.73;18.48;;;;;;;;;;5081989;28;41986;-65
2023/09/02 12:07:04;;;;;;;28.63;17.58;;;;;;;;;;5088484;28;41934;-65
2023/09/02 12:09:32;;;;;;;25.75;18.05;;;;;;;;;;5082867;28;40251;-65
2023/09/02 12:12:00;;;;;;;24.92;19.95;;;;;;;;;;5082266;28;42716;-66
2023/09/02 12:14:28;;;;;;;24.38;17.35;;;;;;;;;;5077128;28;42137;-65
2023/09/02 12:16:56;;;;;;;24.23;17.42;;;;;;;;;;5088624;28;40928;-65
2023/09/02 12:19:26;;;;;;;27.50;18.92;;;;;;;;;;5078878;28;42085;-65
2023/09/02 12:21:54;;;;;;;23.70;18.98;;;;;;;;;;5087113;28;43132;-65
2023/09/02 12:24:22;;;;;;;21.48;16.10;;;;;;;;;;5087970;28;41570;-65
2023/09/02 12:26:50;;;;;;;20.15;16.60;;;;;;;;;;5087875;28;41775;-65
2023/09/02 12:29:18;;;;;;;22.85;17.52;;;;;;;;;;5087328;28;40132;-66
2023/09/02 12:31:50;;;;;;;24.77;17.38;;;;;;;;;;5087602;28;42713;-65
2023/09/02 12:34:19;;;;;;;24.35;17.85;;;;;;;;;;5085004;28;41520;-65
2023/09/02 12:36:48;;;;;;;23.83;18.73;;;;;;;;;;5087715;28;39970;-65
2023/09/02 12:39:22;;;;;;;24.73;17.83;;;;;;;;;;5087980;28;42718;-65
2023/09/02 12:41:50;;;;;;;23.48;16.55;;;;;;;;;;5088376;28;41846;-66
2023/09/02 12:44:19;;;;;;;23.27;15.38;;;;;;;;;;5088480;28;41337;-65
2023/09/02 12:46:47;;;;;;;23.35;17.65;;;;;;;;;;5088176;28;41742;-66
2023/09/02 12:49:15;;;;;;;20.90;17.73;;;;;;;;;;5087727;28;40688;-65
2023/09/02 12:51:43;;;;;;;23.13;17.27;;;;;;;;;;5088211;28;40942;-66
2023/09/02 12:54:13;;;;;;;22.83;16.65;;;;;;;;;;5087588;28;41865;-66
2023/09/02 12:56:41;;;;;;;33.38;17.52;;;;;;;;;;5085513;28;40319;-66
2023/09/02 12:59:09;;;;;;;23.60;17.58;;;;;;;;;;5076876;28;41473;-65
2023/09/02 13:01:38;;;;;;;26.83;17.17;;;;;;;;;;5087333;28;42152;-66
2023/09/02 13:04:06;;;;;;;20.83;17.08;;;;;;;;;;5086744;28;41030;-65
2023/09/02 13:06:35;;;;;;;20.38;15.93;;;;;;;;;;5088153;28;41586;-66
2023/09/02 13:09:03;;;;;;;20.92;16.42;;;;;;;;;;5087676;28;41396;-66
2023/09/02 13:11:32;;;;;;;23.77;16.00;;;;;;;;;;5087086;28;41753;-66
2023/09/02 13:14:00;;;;;;;22.55;16.55;;;;;;;;;;5087623;28;42124;-66
2023/09/02 13:16:28;;;;;;;19.55;15.80;;;;;;;;;;5087292;28;40582;-66
2023/09/02 13:18:57;;;;;;;23.70;18.25;;;;;;;;;;5073580;28;41858;-67
2023/09/02 13:21:24;;;;;;;21.73;16.05;;;;;;;;;;5086603;28;42024;-67
2023/09/02 13:23:52;;;;;;;24.13;17.00;;;;;;;;;;5084296;28;40736;-66
2023/09/02 13:26:20;;;;;;;20.85;15.68;;;;;;;;;;5084613;28;41619;-67
2023/09/02 13:28:53;;;;;;;21.58;16.05;;;;;;;;;;5085092;28;42156;-67
2023/09/02 13:31:22;;;;;;;20.42;15.60;;;;;;;;;;5087480;28;42039;-66
2023/09/02 13:33:50;;;;;;;20.08;15.50;;;;;;;;;;5087235;28;42451;-66
2023/09/02 13:36:18;;;;;;;26.50;18.92;;;;;;;;;;5087022;28;41202;-66
2023/09/02 13:38:46;;;;;;;21.63;17.52;;;;;;;;;;5086664;28;42234;-66
2023/09/02 13:41:14;;;;;;;21.90;17.73;;;;;;;;;;5085847;28;42296;-67
2023/09/02 13:43:42;;;;;;;22.20;17.10;;;;;;;;;;5082000;28;40955;-67
2023/09/02 13:46:11;;;;;;;22.02;18.05;;;;;;;;;;5086600;28;41915;-67
2023/09/02 13:48:39;;;;;;;23.48;17.00;;;;;;;;;;5085388;28;42088;-66
2023/09/02 13:51:08;;;;;;;22.55;15.73;;;;;;;;;;5088272;28;41063;-67
2023/09/02 13:53:36;;;;;;;22.30;16.35;;;;;;;;;;5080046;28;41815;-69
2023/09/02 13:56:04;;;;;;;21.88;15.05;;;;;;;;;;5081847;28;41450;-69
2023/09/02 13:58:33;;;;;;;21.60;14.00;;;;;;;;;;5084123;28;41571;-68
2023/09/02 14:01:01;;;;;;;20.80;15.35;;;;;;;;;;5085726;28;43156;-69
2023/09/02 14:03:31;;;;;;;16.98;14.77;;;;;;;;;;5086168;28;41304;-68
2023/09/02 14:06:01;;;;;;;20.48;15.38;;;;;;;;;;5086369;28;42102;-68
2023/09/02 14:08:34;;;;;;;21.67;13.90;;;;;;;;;;5085119;28;41785;-68
2023/09/02 14:11:03;;;;;;;19.05;14.30;;;;;;;;;;5086847;28;40951;-68
2023/09/02 14:13:32;;;;;;;18.88;13.35;;;;;;;;;;5084720;28;43139;-67
2023/09/02 14:16:00;;;;;;;19.40;14.07;;;;;;;;;;5086655;28;40711;-67
2023/09/02 14:18:28;;;;;;;17.55;13.50;;;;;;;;;;5085971;28;42381;-68
2023/09/02 14:20:57;;;;;;;14.40;12.65;;;;;;;;;;5086297;28;42669;-67
2023/09/02 14:23:25;;;;;;;17.65;13.13;;;;;;;;;;5085915;28;40467;-67
2023/09/02 14:25:53;;;;;;;19.48;13.52;;;;;;;;;;5087005;28;42337;-67
2023/09/02 14:28:21;;;;;;;18.00;12.93;;;;;;;;;;5086053;28;42761;-68
2023/09/02 14:30:49;;;;;;;16.88;12.65;;;;;;;;;;5086912;28;40232;-68
2023/09/02 14:33:18;;;;;;;17.17;11.68;;;;;;;;;;5089689;28;41427;-67
2023/09/02 14:35:46;;;;;;;17.52;11.45;;;;;;;;;;5089409;28;40658;-68
2023/09/02 14:38:16;;;;;;;14.82;12.07;;;;;;;;;;5089817;28;41920;-67